createdAt,value
2022-11-05T00:00:16.804Z,65.6
2022-11-05T00:05:16.846Z,65.5
2022-11-05T00:10:16.807Z,65.4
2022-11-05T00:15:20.329Z,65.3
2022-11-05T00:20:19.865Z,65.1
2022-11-05T00:25:16.843Z,65.0
2022-11-05T00:30:19.806Z,64.9
2022-11-05T00:35:19.801Z,64.8
2022-11-05T00:40:19.786Z,64.6
2022-11-05T00:45:19.797Z,64.5
2022-11-05T00:50:20.306Z,64.4
2022-11-05T00:55:16.843Z,64.3
2022-11-05T01:00:16.812Z,64.2
2022-11-05T01:05:16.806Z,64.1
2022-11-05T01:10:19.855Z,64.0
2022-11-05T01:15:19.850Z,63.9
2022-11-05T01:20:19.855Z,63.7
2022-11-05T01:25:20.222Z,63.6
2022-11-05T01:30:19.828Z,63.5
2022-11-05T01:35:19.823Z,63.3
2022-11-05T01:40:16.856Z,63.2
2022-11-05T01:45:19.866Z,63.0
2022-11-05T01:50:16.868Z,62.9
2022-11-05T01:55:16.871Z,62.8
2022-11-05T02:00:20.344Z,62.7
2022-11-05T02:05:19.828Z,62.7
2022-11-05T02:10:19.857Z,62.6
2022-11-05T02:15:19.871Z,62.5
2022-11-05T02:20:19.843Z,62.5
2022-11-05T02:25:19.818Z,62.4
2022-11-05T02:30:19.831Z,62.4
2022-11-05T02:35:17.391Z,62.3
2022-11-05T02:40:16.919Z,62.3
2022-11-05T02:45:16.888Z,62.2
2022-11-05T02:50:19.879Z,62.2
2022-11-05T02:55:19.863Z,62.2
2022-11-05T03:00:19.889Z,62.2
2022-11-05T03:05:20.431Z,62.2
2022-11-05T03:10:19.866Z,62.1
2022-11-05T03:15:19.873Z,62.1
2022-11-05T03:20:19.868Z,62.1
2022-11-05T03:25:19.858Z,62.1
2022-11-05T03:30:19.883Z,62.1
2022-11-05T03:35:19.871Z,62.0
2022-11-05T03:40:20.277Z,62.0
2022-11-05T03:45:16.904Z,61.9
2022-11-05T03:50:16.900Z,61.9
2022-11-05T03:55:16.898Z,61.8
2022-11-05T04:00:16.158Z,61.8
2022-11-05T04:05:16.200Z,61.9
2022-11-05T04:10:19.179Z,62.0
2022-11-05T04:15:19.526Z,62.0
2022-11-05T04:20:19.139Z,62.1
2022-11-05T04:25:19.193Z,62.1
2022-11-05T04:30:19.240Z,62.1
2022-11-05T04:35:19.131Z,62.1
2022-11-05T04:40:19.116Z,62.1
2022-11-05T04:45:19.130Z,62.1
2022-11-05T04:50:19.641Z,62.0
2022-11-05T04:55:19.140Z,61.8
2022-11-05T05:00:19.150Z,61.8
2022-11-05T05:05:16.056Z,61.7
2022-11-05T05:10:16.207Z,61.6
2022-11-05T05:15:16.207Z,61.5
2022-11-05T05:20:16.189Z,61.4
2022-11-05T05:25:16.586Z,61.3
2022-11-05T05:30:19.200Z,61.2
2022-11-05T05:35:19.188Z,61.1
2022-11-05T05:40:19.172Z,61.1
2022-11-05T05:45:19.181Z,61.0
2022-11-05T05:50:19.137Z,60.9
2022-11-05T05:55:19.746Z,60.8
2022-11-05T06:00:19.169Z,60.7
2022-11-05T06:05:16.237Z,60.7
2022-11-05T06:10:16.268Z,60.7
2022-11-05T06:15:16.239Z,60.6
2022-11-05T06:20:19.178Z,60.5
2022-11-05T06:25:19.218Z,60.6
2022-11-05T06:30:19.816Z,60.7
2022-11-05T06:35:19.184Z,60.7
2022-11-05T06:40:19.193Z,60.7
2022-11-05T06:45:19.205Z,60.8
2022-11-05T06:50:19.203Z,60.8
2022-11-05T06:55:19.177Z,60.8
2022-11-05T07:00:19.189Z,60.8
2022-11-05T07:05:16.627Z,60.7
2022-11-05T07:10:19.202Z,60.7
2022-11-05T07:15:16.252Z,60.7
2022-11-05T07:20:16.236Z,60.7
2022-11-05T07:25:16.300Z,60.7
2022-11-05T07:30:16.266Z,60.6
2022-11-05T07:35:16.272Z,60.6
2022-11-05T07:40:16.733Z,60.5
2022-11-05T07:45:19.256Z,60.5
2022-11-05T07:50:19.236Z,60.5
2022-11-05T07:55:19.215Z,60.4
2022-11-05T08:00:19.228Z,60.4
2022-11-05T08:05:19.216Z,60.4
2022-11-05T08:10:19.736Z,60.3
2022-11-05T08:15:19.229Z,60.3
2022-11-05T08:20:19.225Z,60.2
2022-11-05T08:25:16.181Z,60.2
2022-11-05T08:30:19.281Z,60.2
2022-11-05T08:35:16.276Z,60.1
2022-11-05T08:40:16.270Z,60.1
2022-11-05T08:45:16.781Z,60.0
2022-11-05T08:50:16.291Z,60.0
2022-11-05T08:55:16.346Z,59.9
2022-11-05T09:00:16.248Z,59.9
2022-11-05T09:05:19.283Z,59.8
2022-11-05T09:10:19.253Z,59.8
2022-11-05T09:15:19.823Z,59.7
2022-11-05T09:20:19.250Z,59.7
2022-11-05T09:25:19.274Z,59.7
2022-11-05T09:30:19.262Z,59.6
2022-11-05T09:35:19.267Z,59.5
2022-11-05T09:40:19.257Z,59.5
2022-11-05T09:45:16.290Z,59.4
2022-11-05T09:50:16.699Z,59.4
2022-11-05T09:55:16.349Z,59.3
2022-11-05T10:00:16.305Z,59.3
2022-11-05T10:05:16.364Z,59.2
2022-11-05T10:10:16.305Z,59.2
2022-11-05T10:15:19.308Z,59.1
2022-11-05T10:20:19.815Z,59.1
2022-11-05T10:25:19.317Z,59.0
2022-11-05T10:30:19.457Z,59.0
2022-11-05T10:35:19.324Z,58.9
2022-11-05T10:40:19.272Z,58.9
2022-11-05T10:45:19.321Z,58.8
2022-11-05T10:50:19.406Z,58.7
2022-11-05T10:55:19.729Z,58.6
2022-11-05T11:00:16.333Z,58.6
2022-11-05T11:05:16.384Z,58.6
2022-11-05T11:10:16.345Z,58.6
2022-11-05T11:15:16.361Z,58.6
2022-11-05T11:20:16.365Z,58.6
2022-11-05T11:25:16.383Z,58.6
2022-11-05T11:30:16.860Z,58.7
2022-11-05T11:35:16.385Z,58.7
2022-11-05T11:40:19.377Z,58.7
2022-11-05T11:45:16.357Z,58.8
2022-11-05T11:50:19.353Z,58.9
2022-11-05T11:55:19.345Z,59.0
2022-11-05T12:00:19.877Z,59.0
2022-11-05T12:05:19.365Z,59.1
2022-11-05T12:10:19.341Z,59.1
2022-11-05T12:15:19.346Z,59.3
2022-11-05T12:20:19.325Z,59.4
2022-11-05T12:25:19.399Z,59.6
2022-11-05T12:30:19.345Z,59.8
2022-11-05T12:35:19.924Z,59.9
2022-11-05T12:40:19.403Z,60.0
2022-11-05T12:45:19.391Z,60.1
2022-11-05T12:50:19.315Z,60.3
2022-11-05T12:55:16.368Z,60.5
2022-11-05T13:00:16.238Z,60.7
2022-11-05T13:05:16.409Z,60.9
2022-11-05T13:10:16.787Z,61.1
2022-11-05T13:15:16.384Z,61.4
2022-11-05T13:20:17.683Z,61.7
2022-11-05T13:25:19.419Z,61.9
2022-11-05T13:30:16.407Z,62.2
2022-11-05T13:35:19.424Z,62.5
2022-11-05T13:40:16.216Z,62.9
2022-11-05T13:45:19.881Z,63.2
2022-11-05T13:50:19.380Z,63.5
2022-11-05T13:55:19.402Z,63.9
2022-11-05T14:00:19.449Z,65.3
2022-11-05T14:05:19.413Z,67.0
2022-11-05T14:10:19.375Z,67.9
2022-11-05T14:15:19.402Z,68.7
2022-11-05T14:20:16.803Z,69.2
2022-11-05T14:25:16.466Z,69.4
2022-11-05T14:30:16.423Z,69.7
2022-11-05T14:35:16.432Z,70.0
2022-11-05T14:40:16.447Z,70.3
2022-11-05T14:45:16.448Z,70.4
2022-11-05T14:50:16.456Z,70.8
2022-11-05T14:55:16.998Z,71.3
2022-11-05T15:00:19.466Z,71.4
2022-11-05T15:05:19.453Z,71.6
2022-11-05T15:10:19.387Z,71.8
2022-11-05T15:15:21.924Z,71.8
2022-11-05T15:20:19.395Z,71.9
2022-11-05T15:25:19.958Z,72.2
2022-11-05T15:30:19.416Z,72.4
2022-11-05T15:35:16.467Z,73.0
2022-11-05T15:40:19.451Z,73.3
2022-11-05T15:45:19.490Z,73.5
2022-11-05T15:50:16.449Z,74.0
2022-11-05T15:55:16.493Z,74.6
2022-11-05T16:00:16.893Z,76.1
2022-11-05T16:05:16.519Z,75.8
2022-11-05T16:10:16.489Z,75.4
2022-11-05T16:15:19.667Z,74.9
2022-11-05T16:20:19.455Z,74.8
2022-11-05T16:25:19.450Z,75.5
2022-11-05T16:30:19.965Z,76.0
2022-11-05T16:35:19.440Z,76.1
2022-11-05T16:40:16.469Z,76.5
2022-11-05T16:45:16.492Z,76.8
2022-11-05T16:50:19.512Z,76.6
2022-11-05T16:55:19.427Z,76.5
2022-11-05T17:00:19.424Z,76.2
2022-11-05T17:05:16.908Z,76.5
2022-11-05T17:10:16.483Z,77.0
2022-11-05T17:15:19.477Z,76.7
2022-11-05T17:20:19.527Z,76.6
2022-11-05T17:25:19.491Z,76.5
2022-11-05T17:30:16.488Z,76.4
2022-11-05T17:35:16.511Z,76.8
2022-11-05T17:40:20.037Z,76.8
2022-11-05T17:45:19.493Z,77.2
2022-11-05T17:50:19.510Z,77.3
2022-11-05T17:55:16.765Z,77.3
2022-11-05T18:00:16.529Z,77.5
2022-11-05T18:05:19.482Z,77.7
2022-11-05T18:10:19.482Z,77.8
2022-11-05T18:15:17.088Z,77.7
2022-11-05T18:20:19.753Z,77.3
2022-11-05T18:25:16.553Z,77.2
2022-11-05T18:30:16.549Z,77.2
2022-11-05T18:35:19.501Z,77.3
2022-11-05T18:40:19.517Z,77.4
2022-11-05T18:45:19.919Z,77.5
2022-11-05T18:50:19.526Z,77.2
2022-11-05T18:55:16.539Z,77.0
2022-11-05T19:00:16.536Z,76.9
2022-11-05T19:05:29.004Z,76.7
2022-11-05T19:10:19.514Z,76.5
2022-11-05T19:15:19.547Z,76.4
2022-11-05T19:20:19.911Z,76.3
2022-11-05T19:25:16.586Z,76.3
2022-11-05T19:30:19.533Z,76.2
2022-11-05T19:35:19.563Z,76.2
2022-11-05T19:40:19.490Z,76.2
2022-11-05T19:45:54.962Z,76.2
2022-11-05T19:50:19.512Z,76.2
2022-11-05T19:55:17.014Z,76.1
2022-11-05T20:00:16.544Z,76.0
2022-11-05T20:05:16.572Z,75.8
2022-11-05T20:10:19.573Z,75.8
2022-11-05T20:15:19.548Z,75.7
2022-11-05T20:20:19.513Z,75.6
2022-11-05T20:25:16.603Z,75.5
2022-11-05T20:30:17.085Z,75.3
2022-11-05T20:35:19.558Z,75.2
2022-11-05T20:40:19.566Z,75.1
2022-11-05T20:45:19.542Z,74.9
2022-11-05T20:50:16.445Z,74.8
2022-11-05T20:55:16.614Z,74.6
2022-11-05T21:00:16.611Z,74.5
2022-11-05T21:05:20.103Z,74.4
2022-11-05T21:10:19.548Z,74.3
2022-11-05T21:15:19.542Z,74.1
2022-11-05T21:20:19.565Z,74.0
2022-11-05T21:25:16.614Z,73.9
2022-11-05T21:30:16.603Z,73.8
2022-11-05T21:35:19.646Z,73.8
2022-11-05T21:40:20.207Z,73.7
2022-11-05T21:45:19.636Z,73.5
2022-11-05T21:50:21.621Z,73.4
2022-11-05T21:55:16.617Z,73.3
2022-11-05T22:00:19.674Z,73.1
2022-11-05T22:05:19.585Z,73.0
2022-11-05T22:10:16.860Z,72.9
2022-11-05T22:15:20.122Z,72.7
2022-11-05T22:20:16.668Z,72.6
2022-11-05T22:25:19.618Z,72.4
2022-11-05T22:30:19.747Z,72.2
2022-11-05T22:35:19.625Z,72.0
2022-11-05T22:40:22.210Z,71.8
2022-11-05T22:45:19.586Z,71.6
2022-11-05T22:50:17.063Z,71.4
2022-11-05T22:55:16.671Z,71.2
2022-11-05T23:00:16.657Z,71.1
2022-11-05T23:05:19.614Z,70.9
2022-11-05T23:10:19.606Z,70.7
2022-11-05T23:15:19.632Z,70.5
2022-11-05T23:20:20.010Z,70.4
2022-11-05T23:25:19.598Z,70.2
2022-11-05T23:30:16.650Z,70.0
2022-11-05T23:35:19.673Z,69.9
2022-11-05T23:40:19.626Z,69.7
2022-11-05T23:45:19.658Z,69.5
2022-11-05T23:50:19.609Z,69.4
2022-11-05T23:55:20.112Z,69.2
